Time;durP1;ratioP1;P1;durP2;ratioP2;P2;SDS_P1;SDS_P2;PMS_P1;PMS_P2;Temp;Humidity;BMP_temperature;BMP_pressure;BME280_temperature;BME280_humidity;BME280_pressure;Samples;Min_cycle;Max_cycle;Signal;HPM_P1;HPM_P2
2023/03/20 00:01:28;;;;;;;116.57;53.30;;;9.80;99.90;;;;;;5061037;28;20047;-78
2023/03/20 00:03:56;;;;;;;109.03;52.25;;;9.80;99.90;;;;;;5042833;28;20075;-77
2023/03/20 00:06:26;;;;;;;112.03;51.72;;;9.80;99.90;;;;;;5059937;28;20048;-81
2023/03/20 00:08:53;;;;;;;117.97;53.47;;;9.80;99.90;;;;;;5059126;28;20040;-79
2023/03/20 00:11:28;;;;;;;119.10;55.38;;;9.80;99.90;;;;;;5059311;28;20051;-79
2023/03/20 00:14:00;;;;;;;117.10;53.08;;;9.70;99.90;;;;;;5065422;28;20040;-78
2023/03/20 00:16:35;;;;;;;123.68;56.90;;;9.70;99.90;;;;;;5058792;28;20033;-78
2023/03/20 00:19:04;;;;;;;123.65;56.30;;;9.60;99.90;;;;;;5054672;28;20052;-78
2023/03/20 00:21:31;;;;;;;130.32;56.13;;;9.60;99.90;;;;;;5061072;28;20040;-77
2023/03/20 00:23:57;;;;;;;132.90;57.95;;;9.60;99.90;;;;;;5051223;28;20052;-77
2023/03/20 00:26:31;;;;;;;129.95;55.17;;;9.60;99.90;;;;;;5058013;28;20102;-81
2023/03/20 00:28:58;;;;;;;127.78;53.40;;;9.50;99.90;;;;;;5061440;28;20055;-78
2023/03/20 00:31:36;;;;;;;120.25;53.67;;;9.50;99.90;;;;;;5057443;28;20269;-79
2023/03/20 00:34:09;;;;;;;118.10;49.03;;;9.50;99.90;;;;;;5051680;28;20055;-78
2023/03/20 00:36:35;;;;;;;119.65;49.72;;;9.40;99.90;;;;;;5037282;28;20041;-78
2023/03/20 00:39:03;;;;;;;116.30;49.38;;;9.40;99.90;;;;;;5061915;28;20044;-77
2023/03/20 00:41:54;;;;;;;116.55;51.30;;;9.30;99.90;;;;;;5051626;28;20048;-77
2023/03/20 00:44:47;;;;;;;113.60;48.63;;;9.30;99.90;;;;;;5060728;28;20048;-78
2023/03/20 00:47:23;;;;;;;108.47;45.70;;;9.20;99.90;;;;;;5063656;28;20044;-77
2023/03/20 00:49:51;;;;;;;122.53;49.75;;;9.20;99.90;;;;;;5062941;28;20122;-77
2023/03/20 00:52:20;;;;;;;121.40;48.97;;;9.20;99.90;;;;;;5060751;28;20044;-79
2023/03/20 00:54:50;;;;;;;113.90;47.72;;;9.20;99.90;;;;;;5060743;28;20037;-78
2023/03/20 00:57:24;;;;;;;113.50;48.35;;;9.10;99.90;;;;;;5048636;28;20045;-77
2023/03/20 01:00:05;;;;;;;;;;;9.10;99.90;;;;;;5047349;28;20439;-77
2023/03/20 01:02:32;;;;;;;118.25;47.30;;;9.10;99.90;;;;;;5058396;28;19921;-79
2023/03/20 01:05:00;;;;;;;111.97;47.75;;;9.10;99.90;;;;;;5064453;28;20119;-78
2023/03/20 01:07:27;;;;;;;108.43;47.10;;;9.10;99.90;;;;;;5047088;28;20046;-80
2023/03/20 01:09:54;;;;;;;113.82;46.65;;;9.20;99.90;;;;;;5064288;28;20124;-78
2023/03/20 01:12:21;;;;;;;109.32;46.33;;;9.20;99.90;;;;;;5047932;28;20498;-77
2023/03/20 01:14:53;;;;;;;112.45;45.70;;;9.10;99.90;;;;;;5064401;28;20047;-78
2023/03/20 01:17:22;;;;;;;111.47;46.28;;;9.00;99.90;;;;;;5046681;28;20497;-78
2023/03/20 01:19:50;;;;;;;106.93;45.58;;;9.00;99.90;;;;;;5064369;28;20033;-77
2023/03/20 01:22:17;;;;;;;103.95;45.75;;;8.90;99.90;;;;;;5066549;28;20497;-76
2023/03/20 01:24:44;;;;;;;107.95;41.58;;;9.00;99.90;;;;;;5046036;28;20175;-77
2023/03/20 01:27:14;;;;;;;105.32;42.95;;;8.90;99.90;;;;;;5045141;28;20562;-78
2023/03/20 01:29:41;;;;;;;101.93;42.50;;;8.80;99.90;;;;;;5051852;28;20094;-78
2023/03/20 01:32:14;;;;;;;107.15;42.60;;;8.80;99.90;;;;;;5067091;28;20036;-78
2023/03/20 01:34:44;;;;;;;101.22;43.92;;;8.90;99.90;;;;;;5058330;28;21653;-78
2023/03/20 01:37:15;;;;;;;110.80;44.78;;;8.90;99.90;;;;;;5046557;28;20029;-77
2023/03/20 01:39:43;;;;;;;112.10;45.38;;;9.00;99.90;;;;;;5050711;28;20075;-79
2023/03/20 01:42:14;;;;;;;108.30;43.13;;;9.00;99.90;;;;;;5046208;28;20123;-77
2023/03/20 01:44:42;;;;;;;112.78;44.88;;;9.10;99.90;;;;;;5045562;28;20068;-78
2023/03/20 01:47:23;;;;;;;112.28;46.20;;;9.10;99.90;;;;;;5067777;28;20047;-79
2023/03/20 01:50:32;;;;;;;127.68;48.92;;;9.00;99.90;;;;;;5054698;28;20759;-78
2023/03/20 01:53:19;;;;;;;136.00;49.28;;;9.00;99.90;;;;;;4991589;28;20192;-79
2023/03/20 01:55:55;;;;;;;124.57;46.78;;;8.90;99.90;;;;;;5004488;28;20043;-80
2023/03/20 01:58:31;;;;;;;134.75;49.72;;;8.90;99.90;;;;;;5028680;28;20132;-78
2023/03/20 02:00:59;;;;;;;133.98;51.08;;;9.00;99.90;;;;;;5044820;28;20599;-77
2023/03/20 02:03:26;;;;;;;124.13;49.20;;;9.00;99.90;;;;;;5047309;28;20045;-81
2023/03/20 02:06:06;;;;;;;127.22;50.38;;;9.00;99.90;;;;;;5059634;28;20044;-78
2023/03/20 02:08:53;;;;;;;129.32;49.75;;;8.90;99.90;;;;;;5055367;28;20412;-78
2023/03/20 02:11:23;;;;;;;122.15;46.50;;;8.90;99.90;;;;;;5059757;28;20056;-77
2023/03/20 02:13:54;;;;;;;115.28;48.20;;;8.80;99.90;;;;;;5049773;28;20044;-79
2023/03/20 02:16:21;;;;;;;113.13;46.80;;;8.80;99.90;;;;;;5067021;28;20052;-78
2023/03/20 02:18:57;;;;;;;110.88;47.17;;;8.70;99.90;;;;;;5064743;28;20576;-77
2023/03/20 02:21:46;;;;;;;124.65;48.88;;;8.70;99.90;;;;;;5068268;28;20032;-78
2023/03/20 02:24:50;;;;;;;122.25;45.33;;;8.80;99.90;;;;;;5063940;28;20036;-78
2023/03/20 02:27:22;;;;;;;129.25;48.75;;;8.70;99.90;;;;;;5039188;28;20056;-77
2023/03/20 02:30:01;;;;;;;125.95;46.30;;;8.70;99.90;;;;;;5061868;28;20052;-79
2023/03/20 02:33:04;;;;;;;109.15;43.30;;;8.70;99.90;;;;;;5057230;28;20443;-77
2023/03/20 02:36:09;;;;;;;122.95;45.50;;;8.70;99.90;;;;;;5037508;28;20052;-78
2023/03/20 02:39:12;;;;;;;116.03;43.88;;;8.70;99.90;;;;;;5058430;28;20098;-78
2023/03/20 02:41:51;;;;;;;123.38;43.60;;;8.60;99.90;;;;;;5050961;28;20043;-80
2023/03/20 02:44:41;;;;;;;120.13;43.50;;;8.60;99.90;;;;;;5047174;28;20056;-78
2023/03/20 02:47:20;;;;;;;112.22;42.50;;;8.70;99.90;;;;;;5055348;28;20050;-77
2023/03/20 02:50:19;;;;;;;125.78;42.08;;;8.70;99.90;;;;;;5055790;28;20052;-79
2023/03/20 02:53:02;;;;;;;126.00;44.67;;;8.70;99.90;;;;;;5064118;28;20043;-79
2023/03/20 02:55:56;;;;;;;122.88;43.50;;;8.60;99.90;;;;;;5063169;28;20444;-81
2023/03/20 02:58:33;;;;;;;131.40;46.90;;;8.60;99.90;;;;;;5061333;28;20046;-79
2023/03/20 03:01:09;;;;;;;136.77;50.35;;;8.60;99.90;;;;;;5068530;28;20048;-77
2023/03/20 03:03:59;;;;;;;129.32;43.97;;;8.60;99.90;;;;;;5044433;28;20260;-77
2023/03/20 03:06:33;;;;;;;132.38;48.60;;;8.60;99.90;;;;;;5041412;28;20045;-77
2023/03/20 03:09:13;;;;;;;152.50;48.65;;;8.60;99.90;;;;;;5063014;28;20338;-77
2023/03/20 03:11:49;;;;;;;146.85;51.00;;;8.60;99.90;;;;;;5050137;28;20068;-77
2023/03/20 03:14:35;;;;;;;138.35;50.50;;;8.60;99.90;;;;;;5050669;28;20036;-78
2023/03/20 03:17:06;;;;;;;136.43;46.92;;;8.60;99.90;;;;;;5062750;28;20502;-79
2023/03/20 03:19:35;;;;;;;142.73;51.28;;;8.50;99.90;;;;;;5045802;28;20052;-76
2023/03/20 03:22:03;;;;;;;143.98;50.28;;;8.50;99.90;;;;;;5060101;28;20052;-78
2023/03/20 03:24:32;;;;;;;164.07;55.53;;;8.60;99.90;;;;;;5044762;28;20036;-78
2023/03/20 03:27:19;;;;;;;145.10;50.30;;;8.50;99.90;;;;;;5054388;28;20059;-81
2023/03/20 03:30:12;;;;;;;139.52;51.63;;;8.50;99.90;;;;;;5053318;28;20060;-78
2023/03/20 03:32:50;;;;;;;142.75;53.42;;;8.50;99.90;;;;;;5040012;28;20448;-80
2023/03/20 03:35:20;;;;;;;150.55;51.13;;;8.60;99.90;;;;;;5043250;28;20478;-78
2023/03/20 03:38:01;;;;;;;142.32;49.40;;;8.60;99.90;;;;;;5061489;28;20047;-78
2023/03/20 03:41:05;;;;;;;142.88;48.13;;;8.60;99.90;;;;;;5052123;28;20055;-78
2023/03/20 03:43:42;;;;;;;136.35;50.67;;;8.60;99.90;;;;;;5052181;28;20595;-80
2023/03/20 03:46:21;;;;;;;153.27;51.22;;;8.60;99.90;;;;;;5059211;28;20056;-78
2023/03/20 03:48:54;;;;;;;145.02;48.28;;;8.60;99.90;;;;;;5056803;28;20095;-78
2023/03/20 03:51:25;;;;;;;145.63;49.70;;;8.70;99.90;;;;;;5059750;28;20636;-78
2023/03/20 03:54:27;;;;;;;138.40;50.40;;;8.60;99.90;;;;;;5050717;28;20168;-78
2023/03/20 03:57:48;;;;;;;152.13;48.63;;;8.70;99.90;;;;;;4996016;28;20030;-79
2023/03/20 04:00:20;;;;;;;164.32;54.50;;;8.70;99.90;;;;;;4983330;28;20045;-78
2023/03/20 04:02:52;;;;;;;167.52;51.85;;;8.60;99.90;;;;;;5031259;28;20514;-79
2023/03/20 04:05:21;;;;;;;179.60;55.58;;;8.50;99.90;;;;;;5040095;28;20047;-79
2023/03/20 04:07:55;;;;;;;177.88;55.10;;;8.50;99.90;;;;;;5045799;28;20074;-78
2023/03/20 04:10:21;;;;;;;181.40;56.05;;;8.50;99.90;;;;;;5063954;28;20044;-79
2023/03/20 04:12:48;;;;;;;195.40;53.03;;;8.50;99.90;;;;;;5064399;28;20231;-79
2023/03/20 04:15:16;;;;;;;182.00;53.28;;;8.50;99.90;;;;;;5060265;28;20074;-78
2023/03/20 04:17:43;;;;;;;192.85;56.10;;;8.50;99.90;;;;;;5056487;28;20078;-77
2023/03/20 04:20:12;;;;;;;165.52;47.83;;;8.40;99.90;;;;;;5040391;28;20041;-80
2023/03/20 04:22:40;;;;;;;136.40;44.05;;;8.40;99.90;;;;;;5059447;28;20106;-77
2023/03/20 04:25:20;;;;;;;149.57;46.78;;;8.40;99.90;;;;;;5056130;28;20458;-79
2023/03/20 04:27:49;;;;;;;167.98;47.50;;;8.30;99.90;;;;;;5054854;28;20048;-79
2023/03/20 04:30:24;;;;;;;170.43;49.00;;;8.30;99.90;;;;;;5054987;28;20041;-79
2023/03/20 04:33:15;;;;;;;214.05;56.65;;;8.20;99.90;;;;;;5054175;28;20048;-79
2023/03/20 04:35:55;;;;;;;275.50;68.38;;;8.00;99.90;;;;;;5041976;28;20040;-77
2023/03/20 04:38:23;;;;;;;222.55;58.80;;;8.00;99.90;;;;;;5061402;28;20051;-77
2023/03/20 04:40:52;;;;;;;281.58;74.32;;;8.00;99.90;;;;;;5058973;28;20051;-77
2023/03/20 04:43:18;;;;;;;283.40;72.20;;;7.90;99.90;;;;;;5034278;28;20483;-78
2023/03/20 04:45:45;;;;;;;229.75;67.13;;;7.80;99.90;;;;;;5038810;28;20854;-79
2023/03/20 04:48:12;;;;;;;223.23;58.22;;;7.80;99.90;;;;;;5053666;28;20212;-78
2023/03/20 04:50:39;;;;;;;226.38;63.42;;;7.70;99.90;;;;;;5049537;28;20045;-78
2023/03/20 04:53:06;;;;;;;236.30;67.78;;;7.70;99.90;;;;;;5059303;28;20124;-76
2023/03/20 04:55:33;;;;;;;260.05;69.97;;;7.70;99.90;;;;;;5042895;28;20562;-78
2023/03/20 04:58:00;;;;;;;251.05;66.38;;;7.70;99.90;;;;;;5062039;28;20047;-77
2023/03/20 05:00:28;;;;;;;281.02;76.32;;;7.60;99.90;;;;;;5062529;28;20109;-77
2023/03/20 05:02:54;;;;;;;274.45;72.78;;;7.70;99.90;;;;;;5061640;28;20048;-78
2023/03/20 05:05:22;;;;;;;260.58;68.82;;;7.60;99.90;;;;;;5044740;28;20153;-78
2023/03/20 05:07:50;;;;;;;242.18;68.80;;;7.60;99.90;;;;;;5057514;28;20068;-79
2023/03/20 05:10:26;;;;;;;214.68;66.15;;;7.50;99.90;;;;;;5037023;28;20125;-77
2023/03/20 05:13:01;;;;;;;242.50;70.90;;;7.40;99.90;;;;;;5062088;28;20041;-78
2023/03/20 05:15:51;;;;;;;219.32;66.25;;;7.50;99.90;;;;;;5059126;28;20133;-78
2023/03/20 05:18:38;;;;;;;205.65;66.43;;;7.40;99.90;;;;;;5058354;28;20040;-79
2023/03/20 05:21:36;;;;;;;212.70;67.07;;;7.40;99.90;;;;;;5058259;28;20573;-78
2023/03/20 05:24:30;;;;;;;199.82;66.03;;;7.40;99.90;;;;;;5053280;28;20476;-78
2023/03/20 05:27:17;;;;;;;171.30;61.50;;;7.40;99.90;;;;;;5060788;28;20044;-78
2023/03/20 05:30:07;;;;;;;183.77;62.85;;;7.30;99.90;;;;;;5052986;28;20135;-78
2023/03/20 05:33:01;;;;;;;186.88;63.85;;;7.40;99.90;;;;;;5057974;28;20032;-81
2023/03/20 05:35:28;;;;;;;174.70;64.60;;;7.40;99.90;;;;;;5059122;28;20538;-80
2023/03/20 05:38:03;;;;;;;190.18;65.85;;;7.40;99.90;;;;;;5050202;28;20040;-80
2023/03/20 05:40:40;;;;;;;185.98;65.90;;;7.50;99.90;;;;;;5061882;28;20127;-80
2023/03/20 05:43:32;;;;;;;192.93;67.25;;;7.50;99.90;;;;;;5050994;28;20041;-77
2023/03/20 05:46:10;;;;;;;190.45;66.50;;;7.40;99.90;;;;;;5060727;28;20044;-77
2023/03/20 05:49:05;;;;;;;209.15;70.40;;;7.30;99.90;;;;;;5048746;28;20049;-78
2023/03/20 05:51:54;;;;;;;198.13;67.85;;;7.30;99.90;;;;;;5056531;28;20032;-78
2023/03/20 05:54:56;;;;;;;206.95;69.72;;;7.30;99.90;;;;;;5066489;28;20069;-78
2023/03/20 05:57:33;;;;;;;201.50;67.93;;;7.40;99.90;;;;;;5055417;28;20316;-78
2023/03/20 06:00:19;;;;;;;196.48;71.38;;;7.50;99.90;;;;;;5070705;28;20504;-79
2023/03/20 06:02:50;;;;;;;204.63;72.72;;;7.40;99.90;;;;;;5050522;28;20044;-79
2023/03/20 06:05:37;;;;;;;191.60;67.85;;;7.40;99.90;;;;;;5063126;28;20098;-79
2023/03/20 06:08:04;;;;;;;194.27;67.53;;;7.40;99.90;;;;;;5069472;28;20051;-79
2023/03/20 06:10:31;;;;;;;200.25;70.28;;;7.30;99.90;;;;;;5063841;28;20611;-80
2023/03/20 06:13:00;;;;;;;208.35;74.95;;;7.30;99.90;;;;;;5042796;28;20072;-80
2023/03/20 06:15:28;;;;;;;201.02;71.55;;;7.30;99.90;;;;;;5054517;28;20153;-78
2023/03/20 06:18:02;;;;;;;177.38;62.75;;;7.30;99.90;;;;;;5048449;28;20128;-78
2023/03/20 06:20:30;;;;;;;167.65;63.63;;;7.30;99.90;;;;;;5059822;28;20040;-78
2023/03/20 06:23:00;;;;;;;163.75;57.47;;;7.30;99.90;;;;;;5046212;28;20090;-77
2023/03/20 06:25:27;;;;;;;163.30;60.95;;;7.30;99.90;;;;;;5053768;28;20131;-78
2023/03/20 06:27:54;;;;;;;148.25;55.15;;;7.30;99.90;;;;;;5060525;28;20032;-81
2023/03/20 06:30:21;;;;;;;150.65;58.83;;;7.30;99.90;;;;;;5059992;28;20048;-77
2023/03/20 06:32:49;;;;;;;134.43;53.88;;;7.30;99.90;;;;;;5043861;28;20032;-78
2023/03/20 06:35:17;;;;;;;129.90;49.40;;;7.30;99.90;;;;;;5038578;28;20070;-78
2023/03/20 06:37:46;;;;;;;129.65;52.17;;;7.20;99.90;;;;;;5046786;28;20323;-78
2023/03/20 06:40:20;;;;;;;113.03;49.97;;;7.30;99.90;;;;;;5043861;28;20143;-79
2023/03/20 06:42:47;;;;;;;126.03;49.47;;;7.30;99.90;;;;;;5064995;28;20053;-79
2023/03/20 06:45:15;;;;;;;108.25;47.03;;;7.30;99.90;;;;;;5059286;28;20098;-79
2023/03/20 06:47:51;;;;;;;100.18;42.70;;;7.30;99.90;;;;;;5057271;28;20051;-79
2023/03/20 06:50:18;;;;;;;103.63;44.88;;;7.30;99.90;;;;;;5048347;28;20151;-80
2023/03/20 06:52:45;;;;;;;103.50;42.38;;;7.30;99.90;;;;;;5045301;28;20153;-82
2023/03/20 06:55:50;;;;;;;95.13;41.22;;;7.20;99.90;;;;;;5024317;28;20040;-78
2023/03/20 06:58:17;;;;;;;96.88;42.03;;;7.30;99.90;;;;;;5061417;28;20044;-81
2023/03/20 07:00:48;;;;;;;92.35;42.42;;;7.40;99.90;;;;;;5042833;28;20066;-81
2023/03/20 07:03:15;;;;;;;81.32;37.58;;;7.40;99.90;;;;;;5064151;28;20462;-81
2023/03/20 07:05:44;;;;;;;79.05;36.13;;;7.40;99.90;;;;;;5065244;28;20044;-81
2023/03/20 07:08:11;;;;;;;91.75;41.75;;;7.30;99.90;;;;;;5055513;28;20048;-79
2023/03/20 07:10:38;;;;;;;82.72;38.40;;;7.40;99.90;;;;;;5055646;28;20042;-81
2023/03/20 07:13:05;;;;;;;84.07;38.80;;;7.30;99.90;;;;;;5074724;28;20047;-81
2023/03/20 07:15:34;;;;;;;76.63;38.15;;;7.30;99.90;;;;;;5072770;28;20066;-80
2023/03/20 07:18:01;;;;;;;75.82;36.30;;;7.30;99.90;;;;;;5066573;28;20297;-79
2023/03/20 07:20:28;;;;;;;82.43;37.22;;;7.30;99.90;;;;;;5056192;28;20044;-79
2023/03/20 07:22:55;;;;;;;65.00;34.15;;;7.40;99.90;;;;;;5060951;28;20676;-78
2023/03/20 07:25:25;;;;;;;71.90;34.53;;;7.40;99.90;;;;;;5058215;28;20090;-79
2023/03/20 07:28:10;;;;;;;61.28;32.42;;;7.30;99.90;;;;;;5054280;28;20044;-79
2023/03/20 07:30:40;;;;;;;63.38;32.47;;;7.40;99.90;;;;;;5061795;28;20130;-80
2023/03/20 07:33:07;;;;;;;57.90;29.85;;;7.40;99.90;;;;;;5062947;28;20442;-79
2023/03/20 07:35:34;;;;;;;54.35;30.42;;;7.40;99.90;;;;;;5068629;28;20055;-79
2023/03/20 07:38:02;;;;;;;58.90;31.38;;;7.50;99.90;;;;;;5040173;28;20230;-78
2023/03/20 07:40:29;;;;;;;52.72;29.90;;;7.40;99.90;;;;;;5056002;28;21069;-79
2023/03/20 07:43:00;;;;;;;54.05;30.38;;;7.40;99.90;;;;;;5063020;28;20508;-80
2023/03/20 07:45:48;;;;;;;47.83;30.65;;;7.40;99.90;;;;;;5060854;28;20182;-78
2023/03/20 07:48:18;;;;;;;52.17;29.60;;;7.30;99.90;;;;;;5060459;28;20135;-80
2023/03/20 07:50:45;;;;;;;50.83;30.02;;;7.30;99.90;;;;;;5034660;28;20253;-79
2023/03/20 07:53:12;;;;;;;52.03;29.50;;;7.40;99.90;;;;;;5058193;28;20062;-80
2023/03/20 07:55:38;;;;;;;51.85;30.15;;;7.40;99.90;;;;;;5049307;28;20051;-81
2023/03/20 07:58:07;;;;;;;55.35;31.48;;;7.50;99.90;;;;;;5041352;28;20033;-79
2023/03/20 08:00:34;;;;;;;55.60;32.88;;;7.60;99.90;;;;;;5059571;28;20044;-77
2023/03/20 08:03:00;;;;;;;55.40;32.08;;;7.70;99.90;;;;;;5046555;28;20741;-79
2023/03/20 08:05:27;;;;;;;49.63;32.28;;;7.80;99.90;;;;;;5042070;28;20123;-78
2023/03/20 08:07:54;;;;;;;51.38;31.23;;;7.80;99.90;;;;;;5060041;28;20047;-78
2023/03/20 08:10:21;;;;;;;47.50;31.45;;;7.80;99.90;;;;;;5045356;28;20032;-78
2023/03/20 08:12:48;;;;;;;51.65;32.13;;;7.80;99.90;;;;;;5060720;28;20120;-77
2023/03/20 08:15:15;;;;;;;47.70;30.55;;;7.90;99.90;;;;;;5057259;28;20032;-80
2023/03/20 08:17:43;;;;;;;48.17;30.75;;;7.90;99.90;;;;;;5059583;28;20167;-79
2023/03/20 08:20:11;;;;;;;51.00;32.13;;;7.90;99.90;;;;;;5037106;28;20207;-79
2023/03/20 08:22:38;;;;;;;56.00;34.97;;;7.90;99.90;;;;;;5064975;28;20131;-77
2023/03/20 08:25:07;;;;;;;51.92;32.92;;;8.10;99.90;;;;;;5057105;28;20052;-79
2023/03/20 08:27:34;;;;;;;53.35;34.13;;;8.00;99.90;;;;;;5053347;28;20417;-77
2023/03/20 08:30:02;;;;;;;47.80;32.25;;;8.00;99.90;;;;;;5058689;28;20052;-79
2023/03/20 08:32:29;;;;;;;55.67;34.05;;;8.00;99.90;;;;;;5053558;28;20985;-78
2023/03/20 08:34:56;;;;;;;54.83;36.10;;;8.00;99.90;;;;;;5058747;28;20055;-77
2023/03/20 08:37:22;;;;;;;57.58;37.22;;;8.00;99.90;;;;;;5060528;28;20344;-78
2023/03/20 08:39:49;;;;;;;65.68;38.58;;;8.00;99.90;;;;;;5045201;28;20077;-79
2023/03/20 08:42:16;;;;;;;52.75;36.10;;;8.00;99.90;;;;;;5058595;28;20037;-78
2023/03/20 08:44:43;;;;;;;47.72;33.78;;;8.00;99.90;;;;;;5062875;28;20053;-78
2023/03/20 08:47:10;;;;;;;41.97;32.50;;;8.00;99.90;;;;;;5042699;28;20040;-78
2023/03/20 08:49:37;;;;;;;54.63;35.85;;;7.90;99.90;;;;;;5057304;28;20044;-77
2023/03/20 08:52:04;;;;;;;47.60;32.53;;;8.00;99.90;;;;;;5062449;28;20040;-79
2023/03/20 08:54:32;;;;;;;42.58;31.08;;;8.00;99.90;;;;;;5059612;28;20044;-79
2023/03/20 08:56:59;;;;;;;45.65;33.60;;;8.10;99.90;;;;;;5062949;28;20044;-78
2023/03/20 08:59:26;;;;;;;51.47;34.53;;;8.10;99.90;;;;;;5059660;28;20557;-79
2023/03/20 09:01:53;;;;;;;43.53;34.03;;;8.10;99.90;;;;;;5051978;28;20104;-79
2023/03/20 09:04:20;;;;;;;43.88;31.98;;;8.20;99.90;;;;;;5046901;28;20048;-77
2023/03/20 09:06:46;;;;;;;44.55;32.17;;;8.20;99.90;;;;;;5058300;28;20315;-78
2023/03/20 09:09:14;;;;;;;41.72;32.40;;;8.10;99.90;;;;;;5048819;28;20041;-78
2023/03/20 09:11:41;;;;;;;40.45;34.47;;;8.20;99.90;;;;;;5059957;28;20636;-79
2023/03/20 09:14:08;;;;;;;44.30;36.65;;;8.30;99.90;;;;;;5065422;28;20055;-77
2023/03/20 09:16:35;;;;;;;40.75;34.55;;;8.40;99.90;;;;;;5044244;28;20501;-77
2023/03/20 09:19:02;;;;;;;42.67;34.13;;;8.50;99.90;;;;;;5065693;28;20151;-77
2023/03/20 09:21:29;;;;;;;37.28;33.47;;;8.50;99.90;;;;;;5066366;28;20496;-77
2023/03/20 09:23:56;;;;;;;35.80;32.20;;;8.60;99.90;;;;;;5046162;28;20136;-78
2023/03/20 09:26:22;;;;;;;41.15;33.17;;;8.50;99.90;;;;;;5067777;28;20040;-78
2023/03/20 09:28:49;;;;;;;38.63;34.50;;;8.80;99.90;;;;;;5058457;28;20044;-77
2023/03/20 09:31:16;;;;;;;41.47;35.25;;;9.10;99.90;;;;;;5064825;28;20077;-77
2023/03/20 09:33:42;;;;;;;41.30;35.33;;;9.20;99.90;;;;;;5044920;28;20106;-77
2023/03/20 09:36:10;;;;;;;36.60;32.80;;;9.40;99.90;;;;;;5060729;28;20115;-76
2023/03/20 09:38:37;;;;;;;39.70;36.10;;;9.60;99.90;;;;;;5063141;28;20108;-77
2023/03/20 09:41:05;;;;;;;41.58;38.08;;;9.50;99.90;;;;;;5040656;28;20079;-79
2023/03/20 09:43:56;;;;;;;40.53;37.15;;;9.60;99.90;;;;;;5059720;28;20606;-76
2023/03/20 09:46:48;;;;;;;41.92;38.22;;;9.40;99.90;;;;;;5059266;28;20692;-77
2023/03/20 09:49:27;;;;;;;45.65;41.15;;;9.20;99.90;;;;;;5061738;28;20522;-75
2023/03/20 09:51:59;;;;;;;41.72;37.67;;;9.10;99.90;;;;;;5049340;28;20501;-76
2023/03/20 09:54:35;;;;;;;42.20;38.15;;;9.00;99.90;;;;;;5045782;28;20089;-77
2023/03/20 09:57:26;;;;;;;41.13;36.95;;;8.90;99.90;;;;;;5055686;28;20440;-79
2023/03/20 09:59:56;;;;;;;;;;;8.90;99.90;;;;;;5065869;28;20508;-81
2023/03/20 10:02:36;;;;;;;39.55;35.67;;;8.90;99.90;;;;;;5047307;28;19924;-77
2023/03/20 10:05:14;;;;;;;43.92;39.78;;;8.80;99.90;;;;;;5060804;28;20048;-79
2023/03/20 10:07:41;;;;;;;39.63;35.72;;;8.70;99.90;;;;;;5056700;28;20048;-81
2023/03/20 10:10:13;;;;;;;42.60;38.63;;;8.80;99.90;;;;;;5044593;28;20056;-79
2023/03/20 10:13:26;;;;;;;43.67;39.50;;;8.80;99.90;;;;;;5063997;28;20680;-79
2023/03/20 10:16:08;;;;;;;41.15;37.25;;;8.80;99.90;;;;;;5058745;28;20054;-76
2023/03/20 10:18:40;;;;;;;43.03;38.75;;;8.80;99.90;;;;;;5056646;28;20050;-76
2023/03/20 10:21:17;;;;;;;43.55;39.38;;;8.80;99.90;;;;;;5062944;28;20067;-78
2023/03/20 10:24:02;;;;;;;43.08;38.83;;;8.80;99.90;;;;;;5039034;28;20564;-78
2023/03/20 10:26:34;;;;;;;40.00;36.40;;;8.80;99.90;;;;;;5068700;28;20056;-82
2023/03/20 10:29:28;;;;;;;40.33;36.40;;;8.70;99.90;;;;;;5069016;28;20048;-79
2023/03/20 10:32:10;;;;;;;43.28;38.92;;;8.80;99.90;;;;;;5037091;28;20067;-79
2023/03/20 10:34:51;;;;;;;41.75;37.85;;;8.90;99.90;;;;;;5059373;28;20048;-78
2023/03/20 10:37:46;;;;;;;41.33;37.17;;;9.00;99.90;;;;;;5045463;28;20131;-75
2023/03/20 10:40:30;;;;;;;38.95;35.25;;;9.00;99.90;;;;;;5058104;28;20066;-79
2023/03/20 10:43:03;;;;;;;36.65;33.20;;;9.10;99.90;;;;;;5056345;28;20047;-79
2023/03/20 10:45:47;;;;;;;38.63;34.92;;;9.10;99.90;;;;;;5046983;28;20559;-77
2023/03/20 10:48:37;;;;;;;38.08;34.63;;;9.10;99.90;;;;;;5039134;28;20080;-75
2023/03/20 10:51:09;;;;;;;40.33;36.72;;;9.10;99.90;;;;;;5049284;28;20140;-77
2023/03/20 10:53:46;;;;;;;38.50;34.67;;;9.10;99.90;;;;;;5051612;28;20047;-81
2023/03/20 10:56:22;;;;;;;39.35;35.45;;;9.20;99.90;;;;;;5052705;28;20049;-76
2023/03/20 10:58:58;;;;;;;40.90;37.13;;;9.20;99.90;;;;;;5046053;28;20710;-76
2023/03/20 11:01:24;;;;;;;37.47;34.38;;;9.30;99.90;;;;;;5058891;28;20032;-79
2023/03/20 11:03:51;;;;;;;36.00;32.72;;;9.50;99.90;;;;;;5061107;28;20044;-75
2023/03/20 11:06:23;;;;;;;37.38;33.97;;;9.40;99.90;;;;;;5060593;28;20071;-80
2023/03/20 11:08:52;;;;;;;37.40;34.13;;;9.40;99.90;;;;;;5053049;28;20055;-77
2023/03/20 11:11:29;;;;;;;36.53;32.95;;;9.50;99.90;;;;;;5057522;28;20151;-77
2023/03/20 11:13:57;;;;;;;38.28;34.72;;;9.50;99.90;;;;;;5061535;28;20046;-79
2023/03/20 11:16:31;;;;;;;40.08;36.72;;;9.70;99.90;;;;;;5059170;28;20032;-75
2023/03/20 11:19:05;;;;;;;38.92;35.63;;;9.80;99.90;;;;;;5059656;28;20449;-78
2023/03/20 11:21:43;;;;;;;39.45;35.80;;;9.80;99.90;;;;;;5053205;28;20040;-74
2023/03/20 11:24:32;;;;;;;39.22;35.65;;;9.80;99.90;;;;;;5050923;28;20055;-74
2023/03/20 11:27:11;;;;;;;37.97;34.65;;;9.80;99.90;;;;;;5057916;28;22029;-76
2023/03/20 11:29:40;;;;;;;38.45;35.22;;;9.50;99.90;;;;;;5054198;28;20507;-76
2023/03/20 11:32:34;;;;;;;37.00;33.50;;;9.60;99.90;;;;;;5065582;28;20055;-76
2023/03/20 11:35:27;;;;;;;37.60;34.22;;;9.80;99.90;;;;;;5063440;28;20648;-77
2023/03/20 11:38:06;;;;;;;36.38;33.00;;;9.90;99.90;;;;;;5057976;28;20043;-76
2023/03/20 11:40:33;;;;;;;37.72;34.47;;;10.00;99.90;;;;;;5060735;28;20096;-76
2023/03/20 11:43:00;;;;;;;38.95;35.17;;;10.00;99.90;;;;;;5055924;28;20048;-76
2023/03/20 11:45:46;;;;;;;37.58;34.58;;;9.90;99.90;;;;;;5057850;28;20044;-74
2023/03/20 11:48:16;;;;;;;36.58;33.45;;;9.70;99.90;;;;;;5035391;28;20045;-77
2023/03/20 11:50:48;;;;;;;38.00;34.55;;;9.90;99.90;;;;;;5061182;28;20637;-76
2023/03/20 11:53:38;;;;;;;39.13;35.97;;;10.00;99.90;;;;;;5063230;28;20127;-75
2023/03/20 11:56:07;;;;;;;38.13;35.03;;;10.00;99.90;;;;;;5057407;28;20506;-78
2023/03/20 11:58:37;;;;;;;39.72;36.38;;;9.90;99.90;;;;;;5038567;28;20064;-76
2023/03/20 12:01:07;;;;;;;37.65;34.58;;;9.90;99.90;;;;;;5038620;28;20040;-77
2023/03/20 12:03:54;;;;;;;38.47;35.45;;;10.10;99.90;;;;;;5057594;28;20037;-76
2023/03/20 12:06:26;;;;;;;40.22;36.83;;;10.10;99.90;;;;;;5057648;28;20039;-74
2023/03/20 12:09:04;;;;;;;38.55;35.33;;;10.10;99.90;;;;;;5055057;28;20125;-77
2023/03/20 12:11:56;;;;;;;40.22;36.80;;;10.10;99.90;;;;;;5057301;28;20036;-74
2023/03/20 12:14:34;;;;;;;43.35;39.85;;;10.00;99.90;;;;;;5052432;28;20084;-75
2023/03/20 12:17:10;;;;;;;42.03;38.63;;;10.10;99.90;;;;;;5061563;28;20033;-74
2023/03/20 12:19:37;;;;;;;43.88;40.33;;;10.00;99.90;;;;;;5055141;28;20680;-76
2023/03/20 12:22:38;;;;;;;41.65;37.92;;;9.80;99.90;;;;;;5052025;28;20441;-78
2023/03/20 12:25:26;;;;;;;42.38;38.83;;;9.90;99.90;;;;;;5055004;28;20044;-75
2023/03/20 12:28:16;;;;;;;41.90;38.50;;;9.90;99.90;;;;;;5038273;28;20058;-77
2023/03/20 12:31:12;;;;;;;46.05;41.95;;;9.90;99.90;;;;;;5054151;28;20054;-76
2023/03/20 12:33:53;;;;;;;41.75;38.65;;;10.10;99.90;;;;;;5067784;28;20071;-75
2023/03/20 12:36:35;;;;;;;42.17;38.55;;;10.10;99.90;;;;;;5059047;28;20047;-77
2023/03/20 12:39:10;;;;;;;43.58;40.13;;;10.30;99.90;;;;;;5064381;28;20397;-78
2023/03/20 12:42:08;;;;;;;42.53;39.10;;;10.50;99.90;;;;;;5058577;28;20123;-74
2023/03/20 12:45:05;;;;;;;43.25;39.33;;;10.70;99.90;;;;;;5062377;28;20041;-79
2023/03/20 12:48:10;;;;;;;41.38;37.92;;;11.10;99.90;;;;;;5042618;28;20044;-76
2023/03/20 12:50:40;;;;;;;42.15;38.63;;;11.10;99.90;;;;;;5058447;28;20047;-76
2023/03/20 12:53:29;;;;;;;43.70;40.22;;;10.80;99.90;;;;;;5062212;28;20079;-80
2023/03/20 12:56:31;;;;;;;45.08;41.50;;;10.70;99.90;;;;;;5059197;28;20135;-78
2023/03/20 12:59:28;;;;;;;44.05;40.88;;;10.70;99.90;;;;;;5046283;28;20058;-74
2023/03/20 13:02:02;;;;;;;45.15;41.45;;;10.80;99.90;;;;;;5060514;28;20048;-78
2023/03/20 13:04:57;;;;;;;43.33;40.03;;;10.80;99.90;;;;;;5067834;28;20121;-75
2023/03/20 13:07:42;;;;;;;45.13;41.27;;;10.70;99.90;;;;;;5057020;28;20036;-78
2023/03/20 13:10:22;;;;;;;48.25;43.63;;;10.40;99.90;;;;;;5040323;28;20305;-76
2023/03/20 13:13:13;;;;;;;47.88;43.72;;;10.30;99.90;;;;;;5059906;28;20040;-77